Time;durP1;ratioP1;P1;durP2;ratioP2;P2;SDS_P1;SDS_P2;PMS_P1;PMS_P2;Temp;Humidity;BMP_temperature;BMP_pressure;BME280_temperature;BME280_humidity;BME280_pressure;Samples;Min_cycle;Max_cycle;Signal;HPM_P1;HPM_P2
2024/03/13 00:00:22;;;;;;;;;;;;;;;;;;5082512;28;19942;-58
2024/03/13 00:02:47;;;;;;;;;;;;;;;;;;5088444;28;19912;-59
2024/03/13 00:05:12;;;;;;;;;;;;;;;;;;5082847;28;19919;-58
2024/03/13 00:07:37;;;;;;;;;;;;;;;;;;5086557;28;19912;-58
2024/03/13 00:10:03;;;;;;;;;;;;;;;;;;5081505;28;19947;-58
2024/03/13 00:12:28;;;;;;;;;;;;;;;;;;5082842;28;19936;-58
2024/03/13 00:14:54;;;;;;;;;;;;;;;;;;5084976;28;19920;-66
2024/03/13 00:17:22;;;;;;;;;;;;;;;;;;5083936;28;19952;-66
2024/03/13 00:19:47;;;;;;;;;;;;;;;;;;5082653;28;20361;-65
2024/03/13 00:22:13;;;;;;;;;;;;;;;;;;5078843;28;19955;-66
2024/03/13 00:24:39;;;;;;;;;;;;;;;;;;5088709;28;20340;-65
2024/03/13 00:27:04;;;;;;;;;;;;;;;;;;5086079;28;20369;-66
2024/03/13 00:29:29;;;;;;;;;;;;;;;;;;5082583;28;20300;-66
2024/03/13 00:31:54;;;;;;;;;;;;;;;;;;5086423;28;20296;-65
2024/03/13 00:34:20;;;;;;;;;;;;;;;;;;5086481;28;19939;-66
2024/03/13 00:36:45;;;;;;;;;;;;;;;;;;5085873;28;20631;-66
2024/03/13 00:39:10;;;;;;;;;;;;;;;;;;5085208;28;19956;-66
2024/03/13 00:41:35;;;;;;;;;;;;;;;;;;5085608;28;20008;-66
2024/03/13 00:44:00;;;;;;;;;;;;;;;;;;5081603;28;20402;-66
2024/03/13 00:46:25;;;;;;;;;;;;;;;;;;5085809;28;19965;-62
2024/03/13 00:48:50;;;;;;;;;;;;;;;;;;5086884;28;19920;-65
2024/03/13 00:51:16;;;;;;;;;;;;;;;;;;5088133;28;19923;-66
2024/03/13 00:53:41;;;;;;;;;;;;;;;;;;5086139;28;19908;-66
2024/03/13 00:56:06;;;;;;;;;;;;;;;;;;5085754;28;20408;-65
2024/03/13 00:58:31;;;;;;;;;;;;;;;;;;5086818;28;20338;-66
2024/03/13 01:00:56;;;;;;;;;;;;;;;;;;5078606;28;20373;-66
2024/03/13 01:03:22;;;;;;;;;;;;;;;;;;5086014;28;20257;-65
2024/03/13 01:05:47;;;;;;;;;;;;;;;;;;5089302;28;20491;-66
2024/03/13 01:08:14;;;;;;;;;;;;;;;;;;5088082;28;19999;-66
2024/03/13 01:10:39;;;;;;;;;;;;;;;;;;5081809;28;19912;-67
2024/03/13 01:13:05;;;;;;;;;;;;;;;;;;5085292;28;19908;-67
2024/03/13 01:15:30;;;;;;;;;;;;;;;;;;5087365;28;19966;-67
2024/03/13 01:17:57;;;;;;;;;;;;;;;;;;5086881;28;19908;-66
2024/03/13 01:20:23;;;;;;;;;;;;;;;;;;5082776;28;20330;-66
2024/03/13 01:22:49;;;;;;;;;;;;;;;;;;5086223;28;19947;-66
2024/03/13 01:25:14;;;;;;;;;;;;;;;;;;5086483;28;19954;-58
2024/03/13 01:27:41;;;;;;;;;;;;;;;;;;5082504;28;19912;-60
2024/03/13 01:30:07;;;;;;;;;;;;;;;;;;5083344;28;19908;-59
2024/03/13 01:32:33;;;;;;;;;;;;;;;;;;5084184;28;19913;-58
2024/03/13 01:34:58;;;;;;;;;;;;;;;;;;5085084;28;19919;-59
2024/03/13 01:40:08;;;;;;;;;;;;;;;;;;5084801;28;19946;-59
2024/03/13 01:56:26;;;;;;;;;;;;;;;;;;5088989;28;19923;-58
2024/03/13 01:59:02;;;;;;;;;;;;;;;;;;5082868;28;19919;-58
2024/03/13 02:04:15;;;;;;;;;;;;;;;;;;5058829;28;20342;-59
2024/03/13 02:06:40;;;;;;;;;;;;;;;;;;5085975;28;20333;-60
2024/03/13 02:09:06;;;;;;;;;;;;;;;;;;5081028;28;19967;-59
2024/03/13 02:11:31;;;;;;;;;;;;;;;;;;5087390;28;19920;-58
2024/03/13 02:14:02;;;;;;;;;;;;;;;;;;5083123;28;19916;-59
2024/03/13 02:16:27;;;;;;;;;;;;;;;;;;5088387;28;19912;-58
2024/03/13 02:18:56;;;;;;;;;;;;;;;;;;5081204;28;19913;-59
2024/03/13 02:21:21;;;;;;;;;;;;;;;;;;5089977;28;19920;-58
2024/03/13 02:23:46;;;;;;;;;;;;;;;;;;5088590;28;19927;-60
2024/03/13 02:26:11;;;;;;;;;;;;;;;;;;5084194;28;19977;-59
2024/03/13 02:28:37;;;;;;;;;;;;;;;;;;5087206;28;19923;-59
2024/03/13 02:31:02;;;;;;;;;;;;;;;;;;5083302;28;19922;-60
2024/03/13 02:33:27;;;;;;;;;;;;;;;;;;5086490;28;19919;-58
2024/03/13 02:35:52;;;;;;;;;;;;;;;;;;5085865;28;19948;-66
2024/03/13 02:38:17;;;;;;;;;;;;;;;;;;5083697;28;19916;-66
2024/03/13 02:40:42;;;;;;;;;;;;;;;;;;5087929;28;20395;-66
2024/03/13 02:43:08;;;;;;;;;;;;;;;;;;5083301;28;20572;-66
2024/03/13 02:45:33;;;;;;;;;;;;;;;;;;5088924;28;19954;-66
2024/03/13 02:47:58;;;;;;;;;;;;;;;;;;5089312;28;19939;-66
2024/03/13 02:50:24;;;;;;;;;;;;;;;;;;5088157;28;20645;-66
2024/03/13 02:52:49;;;;;;;;;;;;;;;;;;5088968;28;19947;-66
2024/03/13 02:55:14;;;;;;;;;;;;;;;;;;5090517;28;20368;-66
2024/03/13 02:57:39;;;;;;;;;;;;;;;;;;5087130;28;20365;-66
2024/03/13 03:00:06;;;;;;;;;;;;;;;;;;5078874;28;20442;-66
2024/03/13 03:02:31;;;;;;;;;;;;;;;;;;5081220;28;20370;-65
2024/03/13 03:04:56;;;;;;;;;;;;;;;;;;5085644;28;19937;-66
2024/03/13 03:07:21;;;;;;;;;;;;;;;;;;5085072;28;19913;-66
2024/03/13 03:09:47;;;;;;;;;;;;;;;;;;5084561;28;20249;-65
2024/03/13 03:12:12;;;;;;;;;;;;;;;;;;5078399;28;19962;-66
2024/03/13 03:14:39;;;;;;;;;;;;;;;;;;5083696;28;20534;-66
2024/03/13 03:17:04;;;;;;;;;;;;;;;;;;5083746;28;19920;-66
2024/03/13 03:19:29;;;;;;;;;;;;;;;;;;5086516;28;19912;-66
2024/03/13 03:21:55;;;;;;;;;;;;;;;;;;5082383;28;19912;-66
2024/03/13 03:24:20;;;;;;;;;;;;;;;;;;5080398;28;19912;-66
2024/03/13 03:26:45;;;;;;;;;;;;;;;;;;5078432;28;19923;-66
2024/03/13 03:29:10;;;;;;;;;;;;;;;;;;5084868;28;19966;-66
2024/03/13 03:31:35;;;;;;;;;;;;;;;;;;5085039;28;20149;-66
2024/03/13 03:34:02;;;;;;;;;;;;;;;;;;5078042;28;19924;-65
2024/03/13 03:36:27;;;;;;;;;;;;;;;;;;5078208;28;19912;-65
2024/03/13 03:38:52;;;;;;;;;;;;;;;;;;5078095;28;19920;-66
2024/03/13 03:41:17;;;;;;;;;;;;;;;;;;5083759;28;19930;-66
2024/03/13 03:43:43;;;;;;;;;;;;;;;;;;5084481;28;19974;-66
2024/03/13 03:46:09;;;;;;;;;;;;;;;;;;5080404;28;19916;-66
2024/03/13 03:48:34;;;;;;;;;;;;;;;;;;5083138;28;20419;-66
2024/03/13 03:50:59;;;;;;;;;;;;;;;;;;5079007;28;20388;-66
2024/03/13 03:53:24;;;;;;;;;;;;;;;;;;5081974;28;19969;-66
2024/03/13 03:55:49;;;;;;;;;;;;;;;;;;5082479;28;19960;-66
2024/03/13 03:58:14;;;;;;;;;;;;;;;;;;5088803;28;19924;-66
2024/03/13 04:00:40;;;;;;;;;;;;;;;;;;5085653;28;20297;-66
2024/03/13 04:03:05;;;;;;;;;;;;;;;;;;5087560;28;19941;-66
2024/03/13 04:05:31;;;;;;;;;;;;;;;;;;5089613;28;19919;-66
2024/03/13 04:07:58;;;;;;;;;;;;;;;;;;5088420;28;20482;-66
2024/03/13 04:10:23;;;;;;;;;;;;;;;;;;5083699;28;19957;-66
2024/03/13 04:12:49;;;;;;;;;;;;;;;;;;5092050;28;19955;-65
2024/03/13 04:15:15;;;;;;;;;;;;;;;;;;5084246;28;19920;-65
2024/03/13 04:17:41;;;;;;;;;;;;;;;;;;5085201;28;19916;-66
2024/03/13 04:20:12;;;;;;;;;;;;;;;;;;5085995;28;19920;-62
2024/03/13 04:22:37;;;;;;;;;;;;;;;;;;5085721;28;19916;-66
2024/03/13 04:25:04;;;;;;;;;;;;;;;;;;5085390;28;20266;-65
2024/03/13 04:27:29;;;;;;;;;;;;;;;;;;5084940;28;20066;-66
2024/03/13 04:29:55;;;;;;;;;;;;;;;;;;5084908;28;20327;-65
2024/03/13 04:32:20;;;;;;;;;;;;;;;;;;5082248;28;20002;-66
2024/03/13 04:34:46;;;;;;;;;;;;;;;;;;5091777;28;20061;-66
2024/03/13 04:37:15;;;;;;;;;;;;;;;;;;5085111;28;20372;-65
2024/03/13 04:39:40;;;;;;;;;;;;;;;;;;5087910;28;19945;-67
2024/03/13 04:42:05;;;;;;;;;;;;;;;;;;5086272;28;19978;-67
2024/03/13 04:44:30;;;;;;;;;;;;;;;;;;5083231;28;19912;-67
2024/03/13 04:46:55;;;;;;;;;;;;;;;;;;5083286;28;19912;-67
2024/03/13 04:49:20;;;;;;;;;;;;;;;;;;5089319;28;19922;-67
2024/03/13 04:51:47;;;;;;;;;;;;;;;;;;5085680;28;19970;-64
2024/03/13 04:54:12;;;;;;;;;;;;;;;;;;5087874;28;19920;-66
2024/03/13 04:56:38;;;;;;;;;;;;;;;;;;5086646;28;19908;-66
2024/03/13 04:59:03;;;;;;;;;;;;;;;;;;5083434;28;20315;-66
2024/03/13 05:01:28;;;;;;;;;;;;;;;;;;5086812;28;19961;-66
2024/03/13 05:03:53;;;;;;;;;;;;;;;;;;5084951;28;19912;-67
2024/03/13 05:06:21;;;;;;;;;;;;;;;;;;5087873;28;19991;-67
2024/03/13 05:08:46;;;;;;;;;;;;;;;;;;5081000;28;19920;-66
2024/03/13 05:11:12;;;;;;;;;;;;;;;;;;5090779;28;19919;-67
2024/03/13 05:13:38;;;;;;;;;;;;;;;;;;5082265;28;19989;-67
2024/03/13 05:16:04;;;;;;;;;;;;;;;;;;5086568;28;20326;-67
2024/03/13 05:18:29;;;;;;;;;;;;;;;;;;5083395;28;19909;-67
2024/03/13 05:20:54;;;;;;;;;;;;;;;;;;5083125;28;20007;-68
2024/03/13 05:23:20;;;;;;;;;;;;;;;;;;5085526;28;19909;-66
2024/03/13 05:25:47;;;;;;;;;;;;;;;;;;5084120;28;20012;-67
2024/03/13 05:28:14;;;;;;;;;;;;;;;;;;5090131;28;20272;-67
2024/03/13 05:30:39;;;;;;;;;;;;;;;;;;5084547;28;19916;-67
2024/03/13 05:33:06;;;;;;;;;;;;;;;;;;5081875;28;19912;-67
2024/03/13 05:35:31;;;;;;;;;;;;;;;;;;5084463;28;19920;-67
2024/03/13 05:37:56;;;;;;;;;;;;;;;;;;5086275;28;19912;-67
2024/03/13 05:40:21;;;;;;;;;;;;;;;;;;5084998;28;19923;-68
2024/03/13 05:42:46;;;;;;;;;;;;;;;;;;5085847;28;19932;-68
2024/03/13 05:45:13;;;;;;;;;;;;;;;;;;5085027;28;19912;-68
2024/03/13 05:47:40;;;;;;;;;;;;;;;;;;5081320;28;19916;-69
2024/03/13 05:50:06;;;;;;;;;;;;;;;;;;5079938;28;21888;-64
2024/03/13 05:52:31;;;;;;;;;;;;;;;;;;5085312;28;20242;-67
2024/03/13 05:54:56;;;;;;;;;;;;;;;;;;5083621;28;19942;-67
2024/03/13 05:57:22;;;;;;;;;;;;;;;;;;5084429;28;20468;-68
2024/03/13 05:59:47;;;;;;;;;;;;;;;;;;5085923;28;19912;-67
2024/03/13 06:02:13;;;;;;;;;;;;;;;;;;5079145;28;19944;-68
2024/03/13 06:04:39;;;;;;;;;;;;;;;;;;5083654;28;19912;-67
2024/03/13 06:07:04;;;;;;;;;;;;;;;;;;5081546;28;19966;-68
2024/03/13 06:09:30;;;;;;;;;;;;;;;;;;5077353;28;19922;-67
2024/03/13 06:11:55;;;;;;;;;;;;;;;;;;5084308;28;19926;-68
2024/03/13 06:14:20;;;;;;;;;;;;;;;;;;5076521;28;20365;-68
2024/03/13 06:16:46;;;;;;;;;;;;;;;;;;5075995;28;19982;-68
2024/03/13 06:19:11;;;;;;;;;;;;;;;;;;5083180;28;19912;-68
2024/03/13 06:21:36;;;;;;;;;;;;;;;;;;5085860;28;19912;-68
2024/03/13 06:24:05;;;;;;;;;;;;;;;;;;5077846;28;20258;-67
2024/03/13 06:26:30;;;;;;;;;;;;;;;;;;5084057;28;19919;-67
2024/03/13 06:31:39;;;;;;;;;;;;;;;;;;5079263;28;19943;-66
2024/03/13 06:34:05;;;;;;;;;;;;;;;;;;5075352;28;19925;-67
2024/03/13 06:36:30;;;;;;;;;;;;;;;;;;5077194;28;19913;-66
2024/03/13 06:38:55;;;;;;;;;;;;;;;;;;5074016;28;19917;-67
2024/03/13 06:41:22;;;;;;;;;;;;;;;;;;5080866;28;19989;-67
2024/03/13 06:43:47;;;;;;;;;;;;;;;;;;5071266;28;19917;-67
2024/03/13 06:46:12;;;;;;;;;;;;;;;;;;5075947;28;19920;-68
2024/03/13 06:48:37;;;;;;;;;;;;;;;;;;5079286;28;20288;-67
2024/03/13 06:51:08;;;;;;;;;;;;;;;;;;5080624;28;19919;-67
2024/03/13 06:53:33;;;;;;;;;;;;;;;;;;5075025;28;20285;-67
2024/03/13 06:55:58;;;;;;;;;;;;;;;;;;5076415;28;20578;-67
2024/03/13 06:58:23;;;;;;;;;;;;;;;;;;5073829;28;19912;-69
2024/03/13 07:00:49;;;;;;;;;;;;;;;;;;5076280;28;20395;-67
2024/03/13 07:03:15;;;;;;;;;;;;;;;;;;5077820;28;19922;-67
2024/03/13 07:05:41;;;;;;;;;;;;;;;;;;5076941;28;19913;-67
2024/03/13 07:08:06;;;;;;;;;;;;;;;;;;5077129;28;19932;-64
2024/03/13 07:10:32;;;;;;;;;;;;;;;;;;5079544;28;19913;-66
2024/03/13 07:12:58;;;;;;;;;;;;;;;;;;5074280;28;20262;-67
2024/03/13 07:15:23;;;;;;;;;;;;;;;;;;5073935;28;19969;-66
2024/03/13 07:17:48;;;;;;;;;;;;;;;;;;5070705;28;20368;-67
2024/03/13 07:20:13;;;;;;;;;;;;;;;;;;5074497;28;20407;-67
2024/03/13 07:22:38;;;;;;;;;;;;;;;;;;5072537;28;20007;-66
2024/03/13 07:25:07;;;;;;;;;;;;;;;;;;5073875;28;19916;-67
2024/03/13 07:27:32;;;;;;;;;;;;;;;;;;5074096;28;20444;-69
2024/03/13 07:29:58;;;;;;;;;;;;;;;;;;5072376;28;20003;-66
2024/03/13 07:32:23;;;;;;;;;;;;;;;;;;5080259;28;19915;-68
2024/03/13 07:34:48;;;;;;;;;;;;;;;;;;5075355;28;19916;-67
2024/03/13 07:37:13;;;;;;;;;;;;;;;;;;5078015;28;19943;-67
2024/03/13 07:39:39;;;;;;;;;;;;;;;;;;5081754;28;19916;-67
2024/03/13 07:42:04;;;;;;;;;;;;;;;;;;5081699;28;19923;-67
2024/03/13 07:44:30;;;;;;;;;;;;;;;;;;5079079;28;20011;-68
2024/03/13 07:46:55;;;;;;;;;;;;;;;;;;5081403;28;21990;-64
2024/03/13 07:49:20;;;;;;;;;;;;;;;;;;5070415;28;19934;-65
2024/03/13 07:51:45;;;;;;;;;;;;;;;;;;5077798;28;20054;-67
2024/03/13 07:54:11;;;;;;;;;;;;;;;;;;5071275;28;20392;-67
2024/03/13 07:56:37;;;;;;;;;;;;;;;;;;5071982;28;19927;-64
2024/03/13 07:59:06;;;;;;;;;;;;;;;;;;5082311;28;19916;-67
2024/03/13 08:01:31;;;;;;;;;;;;;;;;;;5070922;28;19916;-67
2024/03/13 08:03:56;;;;;;;;;;;;;;;;;;5083752;28;19920;-63
2024/03/13 08:06:21;;;;;;;;;;;;;;;;;;5071774;28;19919;-67
2024/03/13 08:08:46;;;;;;;;;;;;;;;;;;5079258;28;19982;-64
2024/03/13 08:11:11;;;;;;;;;;;;;;;;;;5076637;28;19916;-68
2024/03/13 08:13:36;;;;;;;;;;;;;;;;;;5069575;28;20006;-67
2024/03/13 08:16:01;;;;;;;;;;;;;;;;;;5071959;28;19916;-67
2024/03/13 08:18:27;;;;;;;;;;;;;;;;;;5075283;28;19916;-68
2024/03/13 08:20:54;;;;;;;;;;;;;;;;;;5079670;28;19920;-68
2024/03/13 08:23:19;;;;;;;;;;;;;;;;;;5074826;28;19912;-64
2024/03/13 08:25:44;;;;;;;;;;;;;;;;;;5077634;28;19942;-60
2024/03/13 08:28:10;;;;;;;;;;;;;;;;;;5082302;28;20108;-60
2024/03/13 08:30:35;;;;;;;;;;;;;;;;;;5076027;28;21452;-60
2024/03/13 08:33:01;;;;;;;;;;;;;;;;;;5069709;28;19974;-59
2024/03/13 08:35:28;;;;;;;;;;;;;;;;;;5069124;28;19921;-62
2024/03/13 08:37:54;;;;;;;;;;;;;;;;;;5075012;28;19920;-58
2024/03/13 08:40:19;;;;;;;;;;;;;;;;;;5074505;28;20384;-58
2024/03/13 08:42:45;;;;;;;;;;;;;;;;;;5080688;28;20746;-59
2024/03/13 08:45:16;;;;;;;;;;;;;;;;;;5075245;28;19912;-58
2024/03/13 08:47:41;;;;;;;;;;;;;;;;;;5080365;28;20434;-58
2024/03/13 08:50:06;;;;;;;;;;;;;;;;;;5073366;28;19957;-58
2024/03/13 08:52:32;;;;;;;;;;;;;;;;;;5075261;28;19920;-60
2024/03/13 08:54:57;;;;;;;;;;;;;;;;;;5079685;28;19939;-58
2024/03/13 08:57:24;;;;;;;;;;;;;;;;;;5073913;28;20369;-59
2024/03/13 08:59:49;;;;;;;;;;;;;;;;;;5074530;28;19946;-60
2024/03/13 09:02:14;;;;;;;;;;;;;;;;;;5087522;28;19916;-59
2024/03/13 09:04:40;;;;;;;;;;;;;;;;;;5088134;28;19912;-59
2024/03/13 09:07:09;;;;;;;;;;;;;;;;;;5078165;28;19946;-60
2024/03/13 09:09:34;;;;;;;;;;;;;;;;;;5078497;28;20015;-59
2024/03/13 09:12:00;;;;;;;;;;;;;;;;;;5075946;28;20038;-61
2024/03/13 09:14:26;;;;;;;;;;;;;;;;;;5081634;28;20040;-59
2024/03/13 09:16:51;;;;;;;;;;;;;;;;;;5079933;28;20007;-59
2024/03/13 09:19:17;;;;;;;;;;;;;;;;;;5082690;28;20007;-59
2024/03/13 09:21:46;;;;;;;;;;;;;;;;;;5079834;28;20364;-59
2024/03/13 09:24:11;;;;;;;;;;;;;;;;;;5076091;28;19956;-59
2024/03/13 09:26:36;;;;;;;;;;;;;;;;;;5076945;28;19920;-59
2024/03/13 09:29:01;;;;;;;;;;;;;;;;;;5073867;28;20007;-59
2024/03/13 09:31:26;;;;;;;;;;;;;;;;;;5076718;28;20269;-60
2024/03/13 09:33:51;;;;;;;;;;;;;;;;;;5080694;28;19919;-59
2024/03/13 09:36:17;;;;;;;;;;;;;;;;;;5074784;28;19916;-68
2024/03/13 09:38:42;;;;;;;;;;;;;;;;;;5075901;28;19956;-67
2024/03/13 09:41:07;;;;;;;;;;;;;;;;;;5077721;28;19931;-66
2024/03/13 09:43:32;;;;;;;;;;;;;;;;;;5074050;28;20477;-67
2024/03/13 09:45:58;;;;;;;;;;;;;;;;;;5073432;28;19912;-67
2024/03/13 09:48:23;;;;;;;;;;;;;;;;;;5075536;28;19927;-67
2024/03/13 09:50:48;;;;;;;;;;;;;;;;;;5076283;28;20431;-67
2024/03/13 09:53:13;;;;;;;;;;;;;;;;;;5078071;28;19939;-67
2024/03/13 09:55:38;;;;;;;;;;;;;;;;;;5074052;28;20368;-67
2024/03/13 09:58:03;;;;;;;;;;;;;;;;;;5081394;28;19943;-68
2024/03/13 10:00:30;;;;;;;;;;;;;;;;;;5073946;28;19958;-67
2024/03/13 10:02:56;;;;;;;;;;;;;;;;;;5075650;28;20445;-67
2024/03/13 10:05:21;;;;;;;;;;;;;;;;;;5076319;28;19916;-67
2024/03/13 10:07:46;;;;;;;;;;;;;;;;;;5078836;28;20733;-67
2024/03/13 10:10:13;;;;;;;;;;;;;;;;;;5083459;28;19973;-67
2024/03/13 10:12:38;;;;;;;;;;;;;;;;;;5072918;28;20426;-67
2024/03/13 10:15:06;;;;;;;;;;;;;;;;;;5072094;28;19920;-66
2024/03/13 10:17:34;;;;;;;;;;;;;;;;;;5074132;28;19919;-67
2024/03/13 10:19:59;;;;;;;;;;;;;;;;;;5083821;28;19981;-68
2024/03/13 10:22:25;;;;;;;;;;;;;;;;;;5081460;28;19916;-68
2024/03/13 10:24:51;;;;;;;;;;;;;;;;;;5082319;28;19920;-67
2024/03/13 10:27:16;;;;;;;;;;;;;;;;;;5079173;28;19965;-67
2024/03/13 10:29:41;;;;;;;;;;;;;;;;;;5074511;28;19936;-67
2024/03/13 10:32:07;;;;;;;;;;;;;;;;;;5075344;28;19966;-66
2024/03/13 10:34:32;;;;;;;;;;;;;;;;;;5074702;28;20288;-67
2024/03/13 10:36:58;;;;;;;;;;;;;;;;;;5073727;28;19912;-67
2024/03/13 10:39:23;;;;;;;;;;;;;;;;;;5075110;28;19912;-67
2024/03/13 10:41:48;;;;;;;;;;;;;;;;;;5077443;28;20404;-67
2024/03/13 10:44:14;;;;;;;;;;;;;;;;;;5076114;28;19920;-59
2024/03/13 10:46:41;;;;;;;;;;;;;;;;;;5074642;28;19912;-60
2024/03/13 10:49:06;;;;;;;;;;;;;;;;;;5072226;28;22877;-61
2024/03/13 10:51:31;;;;;;;;;;;;;;;;;;5075406;28;19958;-59
2024/03/13 10:53:56;;;;;;;;;;;;;;;;;;5071496;28;19920;-59
2024/03/13 10:56:21;;;;;;;;;;;;;;;;;;5077114;28;19912;-61
2024/03/13 10:58:47;;;;;;;;;;;;;;;;;;5075535;28;19919;-59
2024/03/13 11:01:12;;;;;;;;;;;;;;;;;;5076119;28;19922;-59
2024/03/13 11:03:37;;;;;;;;;;;;;;;;;;5082595;28;19913;-59
2024/03/13 11:06:02;;;;;;;;;;;;;;;;;;5077475;28;19956;-59
2024/03/13 11:08:27;;;;;;;;;;;;;;;;;;5070554;28;19912;-59
2024/03/13 11:10:53;;;;;;;;;;;;;;;;;;5072144;28;19916;-61
2024/03/13 11:13:19;;;;;;;;;;;;;;;;;;5072391;28;19943;-59
2024/03/13 11:15:45;;;;;;;;;;;;;;;;;;5081019;28;19928;-59
2024/03/13 11:18:11;;;;;;;;;;;;;;;;;;5076233;28;20002;-59
2024/03/13 11:20:39;;;;;;;;;;;;;;;;;;5075773;28;19923;-59
2024/03/13 11:23:05;;;;;;;;;;;;;;;;;;5071736;28;19951;-59
2024/03/13 11:25:30;;;;;;;;;;;;;;;;;;5072019;28;19913;-59
2024/03/13 11:27:55;;;;;;;;;;;;;;;;;;5072969;28;19916;-59
2024/03/13 11:30:20;;;;;;;;;;;;;;;;;;5070143;28;19916;-59
2024/03/13 11:32:48;;;;;;;;;;;;;;;;;;5073128;28;19917;-62
2024/03/13 11:35:14;;;;;;;;;;;;;;;;;;5075394;28;19916;-59
2024/03/13 11:37:39;;;;;;;;;;;;;;;;;;5075452;28;20311;-60
2024/03/13 11:40:04;;;;;;;;;;;;;;;;;;5075280;28;20035;-59
2024/03/13 11:42:33;;;;;;;;;;;;;;;;;;5076646;28;19931;-59
2024/03/13 11:44:58;;;;;;;;;;;;;;;;;;5075260;28;19913;-62
2024/03/13 11:47:26;;;;;;;;;;;;;;;;;;5080392;28;19912;-59
2024/03/13 11:49:52;;;;;;;;;;;;;;;;;;5080274;28;20433;-59
2024/03/13 11:52:17;;;;;;;;;;;;;;;;;;5073912;28;20004;-59
2024/03/13 11:54:43;;;;;;;;;;;;;;;;;;5076729;28;19916;-59
2024/03/13 11:57:08;;;;;;;;;;;;;;;;;;5070835;28;19923;-60
2024/03/13 11:59:33;;;;;;;;;;;;;;;;;;5069946;28;19917;-59
2024/03/13 12:01:58;;;;;;;;;;;;;;;;;;5079177;28;19916;-59
2024/03/13 12:04:24;;;;;;;;;;;;;;;;;;5074731;28;19912;-60
2024/03/13 12:06:49;;;;;;;;;;;;;;;;;;5077485;28;19999;-60
2024/03/13 12:09:16;;;;;;;;;;;;;;;;;;5074540;28;19920;-59
2024/03/13 12:11:41;;;;;;;;;;;;;;;;;;5074979;28;20579;-59
2024/03/13 12:14:06;;;;;;;;;;;;;;;;;;5081706;28;20016;-59
2024/03/13 12:16:31;;;;;;;;;;;;;;;;;;5081970;28;19950;-59
2024/03/13 12:18:57;;;;;;;;;;;;;;;;;;5071928;28;19919;-59
2024/03/13 12:21:23;;;;;;;;;;;;;;;;;;5083386;28;19913;-59
2024/03/13 12:23:48;;;;;;;;;;;;;;;;;;5082609;28;19912;-59
2024/03/13 12:26:14;;;;;;;;;;;;;;;;;;5074638;28;19995;-59
2024/03/13 12:28:39;;;;;;;;;;;;;;;;;;5082100;28;19959;-59
2024/03/13 12:31:04;;;;;;;;;;;;;;;;;;5084752;28;19913;-60
2024/03/13 12:33:29;;;;;;;;;;;;;;;;;;5077533;28;19923;-60
2024/03/13 12:35:54;;;;;;;;;;;;;;;;;;5074322;28;19923;-60
2024/03/13 12:38:20;;;;;;;;;;;;;;;;;;5080378;28;19950;-59
2024/03/13 12:40:46;;;;;;;;;;;;;;;;;;5080921;28;19968;-59
2024/03/13 12:43:14;;;;;;;;;;;;;;;;;;5079775;28;19974;-61
2024/03/13 12:45:39;;;;;;;;;;;;;;;;;;5075219;28;19940;-59
2024/03/13 12:48:06;;;;;;;;;;;;;;;;;;5082899;28;20266;-59
2024/03/13 12:50:32;;;;;;;;;;;;;;;;;;5084158;28;20254;-59
2024/03/13 12:52:58;;;;;;;;;;;;;;;;;;5075655;28;19919;-61
2024/03/13 12:55:23;;;;;;;;;;;;;;;;;;5077265;28;19939;-59
2024/03/13 12:57:48;;;;;;;;;;;;;;;;;;5086982;28;19912;-60
2024/03/13 13:00:13;;;;;;;;;;;;;;;;;;5077208;28;19913;-59
2024/03/13 13:02:39;;;;;;;;;;;;;;;;;;5081221;28;19912;-59
2024/03/13 13:05:05;;;;;;;;;;;;;;;;;;5080794;28;19912;-68
2024/03/13 13:07:30;;;;;;;;;;;;;;;;;;5078556;28;19935;-66
2024/03/13 13:09:56;;;;;;;;;;;;;;;;;;5062605;28;20300;-64
2024/03/13 13:12:24;;;;;;;;;;;;;;;;;;5081633;28;20007;-67
2024/03/13 13:14:50;;;;;;;;;;;;;;;;;;5080335;28;20328;-67
2024/03/13 13:17:15;;;;;;;;;;;;;;;;;;5082152;28;19952;-67
2024/03/13 13:19:40;;;;;;;;;;;;;;;;;;5086978;28;19916;-67
2024/03/13 13:22:05;;;;;;;;;;;;;;;;;;5072982;28;19912;-66
2024/03/13 13:24:31;;;;;;;;;;;;;;;;;;5078457;28;19912;-67
2024/03/13 13:26:56;;;;;;;;;;;;;;;;;;5071895;28;20392;-67
2024/03/13 13:29:23;;;;;;;;;;;;;;;;;;5077142;28;19912;-65
2024/03/13 13:31:48;;;;;;;;;;;;;;;;;;5078103;28;19912;-67
2024/03/13 13:34:13;;;;;;;;;;;;;;;;;;5074609;28;19938;-66
2024/03/13 13:36:38;;;;;;;;;;;;;;;;;;5082298;28;19912;-67
2024/03/13 13:39:05;;;;;;;;;;;;;;;;;;5077540;28;19912;-67
2024/03/13 13:41:30;;;;;;;;;;;;;;;;;;5081685;28;20057;-65
2024/03/13 13:43:55;;;;;;;;;;;;;;;;;;5082034;28;19995;-65
2024/03/13 13:46:21;;;;;;;;;;;;;;;;;;5078667;28;19912;-67
2024/03/13 13:48:46;;;;;;;;;;;;;;;;;;5079815;28;19913;-64
2024/03/13 13:51:11;;;;;;;;;;;;;;;;;;5073142;28;20050;-67
2024/03/13 13:53:37;;;;;;;;;;;;;;;;;;5083824;28;20054;-67
2024/03/13 13:56:02;;;;;;;;;;;;;;;;;;5078344;28;20071;-67
2024/03/13 13:58:29;;;;;;;;;;;;;;;;;;5078891;28;19917;-67
2024/03/13 14:00:54;;;;;;;;;;;;;;;;;;5083279;28;20262;-66
2024/03/13 14:03:20;;;;;;;;;;;;;;;;;;5085524;28;20349;-66
2024/03/13 14:05:46;;;;;;;;;;;;;;;;;;5076066;28;20871;-66
2024/03/13 14:08:11;;;;;;;;;;;;;;;;;;5082954;28;19918;-67
2024/03/13 14:10:36;;;;;;;;;;;;;;;;;;5080055;28;20005;-66
2024/03/13 14:13:02;;;;;;;;;;;;;;;;;;5072897;28;19991;-66
2024/03/13 14:15:28;;;;;;;;;;;;;;;;;;5072079;28;20258;-69
2024/03/13 14:17:54;;;;;;;;;;;;;;;;;;5076111;28;20015;-67
2024/03/13 14:20:19;;;;;;;;;;;;;;;;;;5071562;28;20027;-67
2024/03/13 14:22:44;;;;;;;;;;;;;;;;;;5082886;28;19912;-67
2024/03/13 14:25:11;;;;;;;;;;;;;;;;;;5077034;28;19912;-60
2024/03/13 14:27:36;;;;;;;;;;;;;;;;;;5076285;28;19924;-60
2024/03/13 14:30:01;;;;;;;;;;;;;;;;;;5074404;28;20487;-59
2024/03/13 14:32:26;;;;;;;;;;;;;;;;;;5074432;28;20577;-59
2024/03/13 14:34:53;;;;;;;;;;;;;;;;;;5088862;28;19999;-60
2024/03/13 14:37:19;;;;;;;;;;;;;;;;;;5074899;28;19913;-60
2024/03/13 14:39:44;;;;;;;;;;;;;;;;;;5079606;28;19917;-59
2024/03/13 14:42:09;;;;;;;;;;;;;;;;;;5069232;28;19931;-59
2024/03/13 14:44:34;;;;;;;;;;;;;;;;;;5079835;28;19912;-60
2024/03/13 14:47:00;;;;;;;;;;;;;;;;;;5072452;28;20360;-59
2024/03/13 14:49:25;;;;;;;;;;;;;;;;;;5081801;28;19924;-58
2024/03/13 14:51:50;;;;;;;;;;;;;;;;;;5084718;28;19925;-59
2024/03/13 14:54:16;;;;;;;;;;;;;;;;;;5075684;28;20269;-59
2024/03/13 14:56:41;;;;;;;;;;;;;;;;;;5079476;28;19957;-59
2024/03/13 14:59:07;;;;;;;;;;;;;;;;;;5072537;28;20001;-61
2024/03/13 15:01:34;;;;;;;;;;;;;;;;;;5075151;28;19917;-59
2024/03/13 15:04:00;;;;;;;;;;;;;;;;;;5075698;28;19928;-60
2024/03/13 15:06:25;;;;;;;;;;;;;;;;;;5082495;28;19920;-59
2024/03/13 15:08:50;;;;;;;;;;;;;;;;;;5071314;28;19920;-59
2024/03/13 15:11:15;;;;;;;;;;;;;;;;;;5078427;28;20439;-60
2024/03/13 15:13:46;;;;;;;;;;;;;;;;;;5074807;28;20010;-60
2024/03/13 15:16:11;;;;;;;;;;;;;;;;;;5080116;28;19955;-59
2024/03/13 15:18:36;;;;;;;;;;;;;;;;;;5079008;28;19985;-60
2024/03/13 15:21:01;;;;;;;;;;;;;;;;;;5082728;28;19938;-60
2024/03/13 15:23:26;;;;;;;;;;;;;;;;;;5074101;28;19921;-59
2024/03/13 15:25:51;;;;;;;;;;;;;;;;;;5078565;28;19917;-60
2024/03/13 15:28:16;;;;;;;;;;;;;;;;;;5075714;28;19912;-61
2024/03/13 15:30:42;;;;;;;;;;;;;;;;;;5071547;28;19950;-60
2024/03/13 15:33:07;;;;;;;;;;;;;;;;;;5072420;28;19916;-61
2024/03/13 15:35:32;;;;;;;;;;;;;;;;;;5075080;28;20481;-67
2024/03/13 15:37:57;;;;;;;;;;;;;;;;;;5084533;28;20365;-67
2024/03/13 15:40:24;;;;;;;;;;;;;;;;;;5075070;28;19922;-68
2024/03/13 15:42:49;;;;;;;;;;;;;;;;;;5076600;28;19955;-67
2024/03/13 15:45:15;;;;;;;;;;;;;;;;;;5088911;28;19943;-68
2024/03/13 15:47:41;;;;;;;;;;;;;;;;;;5071083;28;19948;-68
2024/03/13 15:50:07;;;;;;;;;;;;;;;;;;5082411;28;20403;-68
2024/03/13 15:52:32;;;;;;;;;;;;;;;;;;5079876;28;20464;-67
2024/03/13 15:54:58;;;;;;;;;;;;;;;;;;5081476;28;19916;-68
2024/03/13 15:57:23;;;;;;;;;;;;;;;;;;5082632;28;19916;-67
2024/03/13 15:59:48;;;;;;;;;;;;;;;;;;5079897;28;19917;-67
2024/03/13 16:02:13;;;;;;;;;;;;;;;;;;5089668;28;20270;-68
2024/03/13 16:04:38;;;;;;;;;;;;;;;;;;5096692;28;19912;-71
2024/03/13 16:07:03;;;;;;;;;;;;;;;;;;5085551;28;19954;-71
2024/03/13 16:09:28;;;;;;;;;;;;;;;;;;5091996;28;20009;-71
2024/03/13 16:11:55;;;;;;;;;;;;;;;;;;5087673;28;20472;-71
2024/03/13 16:14:21;;;;;;;;;;;;;;;;;;5079268;28;19920;-70
2024/03/13 16:16:46;;;;;;;;;;;;;;;;;;5085492;28;19954;-70
2024/03/13 16:19:12;;;;;;;;;;;;;;;;;;5088011;28;19912;-69
2024/03/13 16:21:38;;;;;;;;;;;;;;;;;;5083530;28;19919;-69
2024/03/13 16:24:03;;;;;;;;;;;;;;;;;;5084026;28;19912;-71
2024/03/13 16:26:28;;;;;;;;;;;;;;;;;;5084342;28;19952;-71
2024/03/13 16:28:53;;;;;;;;;;;;;;;;;;5081687;28;19916;-71
2024/03/13 16:31:19;;;;;;;;;;;;;;;;;;5081098;28;19957;-70
2024/03/13 16:33:44;;;;;;;;;;;;;;;;;;5082872;28;19920;-70
2024/03/13 16:36:09;;;;;;;;;;;;;;;;;;5088691;28;19923;-71
2024/03/13 16:38:34;;;;;;;;;;;;;;;;;;5088691;28;19923;-71
2024/03/13 16:40:59;;;;;;;;;;;;;;;;;;5090127;28;19978;-68
2024/03/13 16:43:24;;;;;;;;;;;;;;;;;;5092361;28;19970;-68
2024/03/13 16:45:49;;;;;;;;;;;;;;;;;;5087096;28;19955;-72
2024/03/13 16:48:15;;;;;;;;;;;;;;;;;;5088985;28;19923;-72
2024/03/13 16:50:40;;;;;;;;;;;;;;;;;;5088649;28;19918;-71
2024/03/13 16:53:05;;;;;;;;;;;;;;;;;;5089321;28;19920;-69
2024/03/13 16:55:30;;;;;;;;;;;;;;;;;;5084335;28;19916;-70